sensor_id;sensor_type;location;lat;lon;timestamp;P1;durP1;ratioP1;P2;durP2;ratioP2
13122;SDS011;6627;50.920;12.050;2024-03-06T00:01:28;36.17;;;24.90;;
13122;SDS011;6627;50.920;12.050;2024-03-06T00:03:57;38.20;;;25.53;;
13122;SDS011;6627;50.920;12.050;2024-03-06T00:06:41;38.67;;;25.00;;
13122;SDS011;6627;50.920;12.050;2024-03-06T00:09:08;35.63;;;24.77;;
13122;SDS011;6627;50.920;12.050;2024-03-06T00:11:36;36.60;;;23.13;;
13122;SDS011;6627;50.920;12.050;2024-03-06T00:14:04;34.57;;;23.53;;
13122;SDS011;6627;50.920;12.050;2024-03-06T00:16:49;33.17;;;23.47;;
13122;SDS011;6627;50.920;12.050;2024-03-06T00:19:17;33.30;;;23.87;;
13122;SDS011;6627;50.920;12.050;2024-03-06T00:21:48;33.60;;;23.53;;
13122;SDS011;6627;50.920;12.050;2024-03-06T00:24:18;32.70;;;23.00;;
13122;SDS011;6627;50.920;12.050;2024-03-06T00:26:48;38.80;;;22.07;;
13122;SDS011;6627;50.920;12.050;2024-03-06T00:29:17;31.23;;;22.37;;
13122;SDS011;6627;50.920;12.050;2024-03-06T00:31:45;31.43;;;22.33;;
13122;SDS011;6627;50.920;12.050;2024-03-06T00:34:14;31.60;;;21.80;;
13122;SDS011;6627;50.920;12.050;2024-03-06T00:36:42;30.37;;;21.33;;
13122;SDS011;6627;50.920;12.050;2024-03-06T00:39:12;31.37;;;21.67;;
13122;SDS011;6627;50.920;12.050;2024-03-06T00:41:43;30.67;;;21.30;;
13122;SDS011;6627;50.920;12.050;2024-03-06T00:44:13;31.40;;;21.67;;
13122;SDS011;6627;50.920;12.050;2024-03-06T00:46:46;33.30;;;22.37;;
13122;SDS011;6627;50.920;12.050;2024-03-06T00:49:14;30.97;;;22.33;;
13122;SDS011;6627;50.920;12.050;2024-03-06T00:51:41;34.53;;;21.93;;
13122;SDS011;6627;50.920;12.050;2024-03-06T00:54:10;29.07;;;21.47;;
13122;SDS011;6627;50.920;12.050;2024-03-06T00:56:37;30.07;;;22.00;;
13122;SDS011;6627;50.920;12.050;2024-03-06T00:59:05;29.97;;;20.13;;
13122;SDS011;6627;50.920;12.050;2024-03-06T01:01:34;32.77;;;21.07;;
13122;SDS011;6627;50.920;12.050;2024-03-06T01:04:05;27.30;;;19.80;;
13122;SDS011;6627;50.920;12.050;2024-03-06T01:06:32;31.07;;;21.13;;
13122;SDS011;6627;50.920;12.050;2024-03-06T01:09:01;29.03;;;18.93;;
13122;SDS011;6627;50.920;12.050;2024-03-06T01:11:28;30.53;;;19.73;;
13122;SDS011;6627;50.920;12.050;2024-03-06T01:13:56;26.53;;;19.43;;
13122;SDS011;6627;50.920;12.050;2024-03-06T01:16:23;31.37;;;20.93;;
13122;SDS011;6627;50.920;12.050;2024-03-06T01:18:50;26.57;;;19.13;;
13122;SDS011;6627;50.920;12.050;2024-03-06T01:21:18;30.17;;;20.13;;
13122;SDS011;6627;50.920;12.050;2024-03-06T01:23:47;27.60;;;20.17;;
13122;SDS011;6627;50.920;12.050;2024-03-06T01:26:17;27.37;;;20.03;;
13122;SDS011;6627;50.920;12.050;2024-03-06T01:28:48;31.67;;;20.00;;
13122;SDS011;6627;50.920;12.050;2024-03-06T01:31:15;30.57;;;19.83;;
13122;SDS011;6627;50.920;12.050;2024-03-06T01:33:42;31.50;;;20.97;;
13122;SDS011;6627;50.920;12.050;2024-03-06T01:36:09;32.40;;;19.80;;
13122;SDS011;6627;50.920;12.050;2024-03-06T01:38:39;28.93;;;20.23;;
13122;SDS011;6627;50.920;12.050;2024-03-06T01:41:07;30.00;;;20.73;;
13122;SDS011;6627;50.920;12.050;2024-03-06T01:43:36;29.87;;;20.57;;
13122;SDS011;6627;50.920;12.050;2024-03-06T01:46:07;25.93;;;19.47;;
13122;SDS011;6627;50.920;12.050;2024-03-06T01:48:37;28.10;;;19.57;;
13122;SDS011;6627;50.920;12.050;2024-03-06T01:51:08;27.50;;;20.07;;
13122;SDS011;6627;50.920;12.050;2024-03-06T01:53:39;30.57;;;19.30;;
13122;SDS011;6627;50.920;12.050;2024-03-06T01:56:07;30.77;;;20.20;;
13122;SDS011;6627;50.920;12.050;2024-03-06T01:58:37;26.00;;;19.70;;
13122;SDS011;6627;50.920;12.050;2024-03-06T02:01:06;29.13;;;19.87;;
13122;SDS011;6627;50.920;12.050;2024-03-06T02:03:33;27.73;;;20.20;;
13122;SDS011;6627;50.920;12.050;2024-03-06T02:06:03;30.87;;;20.97;;
13122;SDS011;6627;50.920;12.050;2024-03-06T02:08:33;28.87;;;20.93;;
13122;SDS011;6627;50.920;12.050;2024-03-06T02:11:03;30.83;;;20.67;;
13122;SDS011;6627;50.920;12.050;2024-03-06T02:13:33;33.10;;;20.33;;
13122;SDS011;6627;50.920;12.050;2024-03-06T02:16:04;30.00;;;21.67;;
13122;SDS011;6627;50.920;12.050;2024-03-06T02:18:31;28.73;;;22.17;;
13122;SDS011;6627;50.920;12.050;2024-03-06T02:21:00;31.83;;;21.97;;
13122;SDS011;6627;50.920;12.050;2024-03-06T02:23:27;32.90;;;21.33;;
13122;SDS011;6627;50.920;12.050;2024-03-06T02:25:54;31.67;;;21.07;;
13122;SDS011;6627;50.920;12.050;2024-03-06T02:28:25;33.57;;;21.83;;
13122;SDS011;6627;50.920;12.050;2024-03-06T02:30:55;31.33;;;21.37;;
13122;SDS011;6627;50.920;12.050;2024-03-06T02:33:25;33.37;;;21.23;;
13122;SDS011;6627;50.920;12.050;2024-03-06T02:35:55;30.70;;;21.43;;
13122;SDS011;6627;50.920;12.050;2024-03-06T02:38:24;31.33;;;21.47;;
13122;SDS011;6627;50.920;12.050;2024-03-06T02:40:51;27.77;;;20.20;;
13122;SDS011;6627;50.920;12.050;2024-03-06T02:43:19;30.83;;;21.57;;
13122;SDS011;6627;50.920;12.050;2024-03-06T02:45:46;32.93;;;21.73;;
13122;SDS011;6627;50.920;12.050;2024-03-06T02:48:13;28.80;;;21.53;;
13122;SDS011;6627;50.920;12.050;2024-03-06T02:50:40;31.57;;;21.47;;
13122;SDS011;6627;50.920;12.050;2024-03-06T02:53:10;29.53;;;21.93;;
13122;SDS011;6627;50.920;12.050;2024-03-06T02:55:41;35.50;;;22.23;;
13122;SDS011;6627;50.920;12.050;2024-03-06T02:58:09;37.53;;;22.57;;
13122;SDS011;6627;50.920;12.050;2024-03-06T03:00:36;30.03;;;22.63;;
13122;SDS011;6627;50.920;12.050;2024-03-06T03:03:06;31.63;;;22.77;;
13122;SDS011;6627;50.920;12.050;2024-03-06T03:05:34;33.40;;;21.60;;
13122;SDS011;6627;50.920;12.050;2024-03-06T03:08:02;31.50;;;21.47;;
13122;SDS011;6627;50.920;12.050;2024-03-06T03:10:30;32.77;;;22.67;;
13122;SDS011;6627;50.920;12.050;2024-03-06T03:13:04;32.53;;;21.97;;
13122;SDS011;6627;50.920;12.050;2024-03-06T03:15:34;37.20;;;21.57;;
13122;SDS011;6627;50.920;12.050;2024-03-06T03:18:04;32.60;;;22.47;;
13122;SDS011;6627;50.920;12.050;2024-03-06T03:20:34;38.07;;;22.73;;
13122;SDS011;6627;50.920;12.050;2024-03-06T03:23:02;33.27;;;23.20;;
13122;SDS011;6627;50.920;12.050;2024-03-06T03:25:31;38.40;;;22.87;;
13122;SDS011;6627;50.920;12.050;2024-03-06T03:27:59;35.50;;;22.70;;
13122;SDS011;6627;50.920;12.050;2024-03-06T03:30:28;37.40;;;23.40;;
13122;SDS011;6627;50.920;12.050;2024-03-06T03:33:17;38.77;;;24.63;;
13122;SDS011;6627;50.920;12.050;2024-03-06T03:35:46;35.50;;;24.00;;
13122;SDS011;6627;50.920;12.050;2024-03-06T03:38:17;37.20;;;23.83;;
13122;SDS011;6627;50.920;12.050;2024-03-06T03:40:46;35.23;;;23.77;;
13122;SDS011;6627;50.920;12.050;2024-03-06T03:43:16;34.17;;;24.07;;
13122;SDS011;6627;50.920;12.050;2024-03-06T03:45:46;34.13;;;23.30;;
13122;SDS011;6627;50.920;12.050;2024-03-06T03:48:13;36.83;;;23.57;;
13122;SDS011;6627;50.920;12.050;2024-03-06T03:50:41;33.73;;;24.10;;
13122;SDS011;6627;50.920;12.050;2024-03-06T03:53:08;38.70;;;25.33;;
13122;SDS011;6627;50.920;12.050;2024-03-06T03:55:37;36.63;;;24.87;;
13122;SDS011;6627;50.920;12.050;2024-03-06T03:58:07;39.80;;;23.97;;
13122;SDS011;6627;50.920;12.050;2024-03-06T04:00:37;36.23;;;24.00;;
13122;SDS011;6627;50.920;12.050;2024-03-06T04:03:06;40.37;;;25.23;;
13122;SDS011;6627;50.920;12.050;2024-03-06T04:05:36;35.23;;;23.67;;
13122;SDS011;6627;50.920;12.050;2024-03-06T04:08:03;34.43;;;24.67;;
13122;SDS011;6627;50.920;12.050;2024-03-06T04:10:32;37.70;;;24.13;;
13122;SDS011;6627;50.920;12.050;2024-03-06T04:12:59;35.57;;;23.50;;
13122;SDS011;6627;50.920;12.050;2024-03-06T04:15:26;45.43;;;23.63;;
13122;SDS011;6627;50.920;12.050;2024-03-06T04:17:55;38.60;;;24.17;;
13122;SDS011;6627;50.920;12.050;2024-03-06T04:20:26;33.77;;;23.80;;
13122;SDS011;6627;50.920;12.050;2024-03-06T04:22:53;33.87;;;24.33;;
13122;SDS011;6627;50.920;12.050;2024-03-06T04:25:23;33.43;;;23.20;;
13122;SDS011;6627;50.920;12.050;2024-03-06T04:27:51;33.30;;;24.40;;
13122;SDS011;6627;50.920;12.050;2024-03-06T04:30:18;33.40;;;23.30;;
13122;SDS011;6627;50.920;12.050;2024-03-06T04:32:45;38.70;;;24.10;;
13122;SDS011;6627;50.920;12.050;2024-03-06T04:35:12;35.37;;;23.90;;
13122;SDS011;6627;50.920;12.050;2024-03-06T04:37:41;39.07;;;24.37;;
13122;SDS011;6627;50.920;12.050;2024-03-06T04:40:11;36.20;;;24.33;;
13122;SDS011;6627;50.920;12.050;2024-03-06T04:42:46;33.50;;;23.73;;
13122;SDS011;6627;50.920;12.050;2024-03-06T04:45:16;33.00;;;23.17;;
13122;SDS011;6627;50.920;12.050;2024-03-06T04:47:47;38.60;;;23.70;;
13122;SDS011;6627;50.920;12.050;2024-03-06T04:50:14;37.13;;;23.93;;
13122;SDS011;6627;50.920;12.050;2024-03-06T04:52:44;31.67;;;23.40;;
13122;SDS011;6627;50.920;12.050;2024-03-06T04:55:11;33.40;;;23.87;;
13122;SDS011;6627;50.920;12.050;2024-03-06T04:57:42;35.43;;;23.73;;
13122;SDS011;6627;50.920;12.050;2024-03-06T05:00:10;34.67;;;24.27;;
13122;SDS011;6627;50.920;12.050;2024-03-06T05:02:40;36.27;;;24.63;;
13122;SDS011;6627;50.920;12.050;2024-03-06T05:05:12;38.43;;;24.03;;
13122;SDS011;6627;50.920;12.050;2024-03-06T05:07:41;37.87;;;24.37;;
13122;SDS011;6627;50.920;12.050;2024-03-06T05:10:14;41.00;;;25.23;;
13122;SDS011;6627;50.920;12.050;2024-03-06T05:12:42;34.83;;;24.07;;
13122;SDS011;6627;50.920;12.050;2024-03-06T05:15:10;36.80;;;24.27;;
13122;SDS011;6627;50.920;12.050;2024-03-06T05:17:39;37.87;;;25.47;;
13122;SDS011;6627;50.920;12.050;2024-03-06T05:20:08;37.17;;;24.37;;
13122;SDS011;6627;50.920;12.050;2024-03-06T05:22:45;34.20;;;22.93;;
13122;SDS011;6627;50.920;12.050;2024-03-06T05:25:17;41.90;;;26.53;;
13122;SDS011;6627;50.920;12.050;2024-03-06T05:27:44;38.60;;;25.10;;
13122;SDS011;6627;50.920;12.050;2024-03-06T05:30:14;37.57;;;25.40;;
13122;SDS011;6627;50.920;12.050;2024-03-06T05:32:45;40.80;;;25.40;;
13122;SDS011;6627;50.920;12.050;2024-03-06T05:35:12;40.87;;;24.87;;
13122;SDS011;6627;50.920;12.050;2024-03-06T05:37:41;40.93;;;26.47;;
13122;SDS011;6627;50.920;12.050;2024-03-06T05:40:09;42.07;;;27.50;;
13122;SDS011;6627;50.920;12.050;2024-03-06T05:42:40;43.13;;;27.43;;
13122;SDS011;6627;50.920;12.050;2024-03-06T05:45:10;37.27;;;26.90;;
13122;SDS011;6627;50.920;12.050;2024-03-06T05:47:38;39.50;;;25.27;;
13122;SDS011;6627;50.920;12.050;2024-03-06T05:50:08;43.43;;;27.00;;
13122;SDS011;6627;50.920;12.050;2024-03-06T05:52:38;45.33;;;27.47;;
13122;SDS011;6627;50.920;12.050;2024-03-06T05:55:06;41.97;;;26.70;;
13122;SDS011;6627;50.920;12.050;2024-03-06T05:57:34;45.03;;;28.47;;
13122;SDS011;6627;50.920;12.050;2024-03-06T06:00:03;45.73;;;27.97;;
13122;SDS011;6627;50.920;12.050;2024-03-06T06:02:36;46.80;;;28.07;;
13122;SDS011;6627;50.920;12.050;2024-03-06T06:05:04;45.63;;;28.50;;
13122;SDS011;6627;50.920;12.050;2024-03-06T06:07:36;41.23;;;25.90;;
13122;SDS011;6627;50.920;12.050;2024-03-06T06:10:05;43.90;;;28.60;;
13122;SDS011;6627;50.920;12.050;2024-03-06T06:12:38;44.03;;;27.63;;
13122;SDS011;6627;50.920;12.050;2024-03-06T06:15:10;49.10;;;29.03;;
13122;SDS011;6627;50.920;12.050;2024-03-06T06:17:38;47.63;;;28.67;;
13122;SDS011;6627;50.920;12.050;2024-03-06T06:20:09;47.37;;;29.97;;
13122;SDS011;6627;50.920;12.050;2024-03-06T06:22:40;51.20;;;28.90;;
13122;SDS011;6627;50.920;12.050;2024-03-06T06:25:07;44.23;;;28.50;;
13122;SDS011;6627;50.920;12.050;2024-03-06T06:27:35;48.33;;;28.43;;
13122;SDS011;6627;50.920;12.050;2024-03-06T06:30:12;53.40;;;30.87;;
13122;SDS011;6627;50.920;12.050;2024-03-06T06:32:43;45.20;;;28.07;;
13122;SDS011;6627;50.920;12.050;2024-03-06T06:35:13;50.40;;;28.93;;
13122;SDS011;6627;50.920;12.050;2024-03-06T06:37:41;50.20;;;29.63;;
13122;SDS011;6627;50.920;12.050;2024-03-06T06:40:09;46.67;;;30.53;;
13122;SDS011;6627;50.920;12.050;2024-03-06T06:42:43;47.80;;;30.03;;
13122;SDS011;6627;50.920;12.050;2024-03-06T06:45:16;53.83;;;30.27;;
13122;SDS011;6627;50.920;12.050;2024-03-06T06:47:44;49.27;;;31.40;;
13122;SDS011;6627;50.920;12.050;2024-03-06T06:50:14;50.03;;;29.50;;
13122;SDS011;6627;50.920;12.050;2024-03-06T06:52:45;49.50;;;30.40;;
13122;SDS011;6627;50.920;12.050;2024-03-06T06:55:15;45.53;;;30.07;;
13122;SDS011;6627;50.920;12.050;2024-03-06T06:57:45;45.27;;;29.07;;
13122;SDS011;6627;50.920;12.050;2024-03-06T07:00:17;39.73;;;27.50;;
13122;SDS011;6627;50.920;12.050;2024-03-06T07:02:47;50.30;;;29.23;;
13122;SDS011;6627;50.920;12.050;2024-03-06T07:05:18;47.73;;;29.17;;
13122;SDS011;6627;50.920;12.050;2024-03-06T07:07:46;47.37;;;29.30;;
13122;SDS011;6627;50.920;12.050;2024-03-06T07:10:13;46.47;;;28.67;;
13122;SDS011;6627;50.920;12.050;2024-03-06T07:12:43;46.37;;;29.40;;
13122;SDS011;6627;50.920;12.050;2024-03-06T07:15:13;42.90;;;28.33;;
13122;SDS011;6627;50.920;12.050;2024-03-06T07:17:45;47.53;;;29.97;;
13122;SDS011;6627;50.920;12.050;2024-03-06T07:20:15;45.73;;;29.70;;
13122;SDS011;6627;50.920;12.050;2024-03-06T07:22:42;45.47;;;28.80;;
13122;SDS011;6627;50.920;12.050;2024-03-06T07:25:09;43.00;;;28.60;;
13122;SDS011;6627;50.920;12.050;2024-03-06T07:27:37;45.87;;;28.70;;
13122;SDS011;6627;50.920;12.050;2024-03-06T07:30:04;46.10;;;29.00;;
13122;SDS011;6627;50.920;12.050;2024-03-06T07:32:33;48.63;;;29.10;;
13122;SDS011;6627;50.920;12.050;2024-03-06T07:35:05;44.33;;;27.97;;
13122;SDS011;6627;50.920;12.050;2024-03-06T07:37:33;40.23;;;27.87;;
13122;SDS011;6627;50.920;12.050;2024-03-06T07:40:03;43.50;;;27.27;;
13122;SDS011;6627;50.920;12.050;2024-03-06T07:42:34;44.27;;;27.93;;
13122;SDS011;6627;50.920;12.050;2024-03-06T07:45:02;44.57;;;28.83;;
13122;SDS011;6627;50.920;12.050;2024-03-06T07:47:29;44.53;;;28.93;;
13122;SDS011;6627;50.920;12.050;2024-03-06T07:49:57;47.17;;;28.87;;
13122;SDS011;6627;50.920;12.050;2024-03-06T07:52:26;41.53;;;28.33;;
13122;SDS011;6627;50.920;12.050;2024-03-06T07:54:53;42.07;;;27.80;;
13122;SDS011;6627;50.920;12.050;2024-03-06T07:57:23;36.57;;;26.40;;
13122;SDS011;6627;50.920;12.050;2024-03-06T07:59:53;37.73;;;25.73;;
13122;SDS011;6627;50.920;12.050;2024-03-06T08:02:23;40.47;;;26.80;;
13122;SDS011;6627;50.920;12.050;2024-03-06T08:04:53;41.60;;;27.00;;
13122;SDS011;6627;50.920;12.050;2024-03-06T08:07:20;45.10;;;28.03;;
13122;SDS011;6627;50.920;12.050;2024-03-06T08:09:49;50.60;;;29.00;;
13122;SDS011;6627;50.920;12.050;2024-03-06T08:12:16;45.07;;;29.07;;
13122;SDS011;6627;50.920;12.050;2024-03-06T08:14:43;43.50;;;27.67;;
13122;SDS011;6627;50.920;12.050;2024-03-06T08:17:30;44.30;;;29.20;;
13122;SDS011;6627;50.920;12.050;2024-03-06T08:20:00;41.73;;;28.83;;
13122;SDS011;6627;50.920;12.050;2024-03-06T08:22:32;49.73;;;28.63;;
13122;SDS011;6627;50.920;12.050;2024-03-06T08:25:06;44.80;;;29.63;;
13122;SDS011;6627;50.920;12.050;2024-03-06T08:27:36;42.43;;;28.33;;
13122;SDS011;6627;50.920;12.050;2024-03-06T08:30:08;49.80;;;29.27;;
13122;SDS011;6627;50.920;12.050;2024-03-06T08:32:36;42.37;;;28.73;;
13122;SDS011;6627;50.920;12.050;2024-03-06T08:35:04;42.67;;;28.90;;
13122;SDS011;6627;50.920;12.050;2024-03-06T08:37:36;41.80;;;29.77;;
13122;SDS011;6627;50.920;12.050;2024-03-06T08:40:09;43.90;;;29.90;;
13122;SDS011;6627;50.920;12.050;2024-03-06T08:42:42;46.40;;;30.10;;
13122;SDS011;6627;50.920;12.050;2024-03-06T08:45:13;48.73;;;31.53;;
13122;SDS011;6627;50.920;12.050;2024-03-06T08:47:43;47.53;;;32.63;;
13122;SDS011;6627;50.920;12.050;2024-03-06T08:50:12;54.43;;;33.30;;
13122;SDS011;6627;50.920;12.050;2024-03-06T08:52:40;46.70;;;31.57;;
13122;SDS011;6627;50.920;12.050;2024-03-06T08:55:16;48.07;;;31.80;;
13122;SDS011;6627;50.920;12.050;2024-03-06T08:57:43;48.43;;;30.97;;
13122;SDS011;6627;50.920;12.050;2024-03-06T09:00:11;53.77;;;32.00;;
13122;SDS011;6627;50.920;12.050;2024-03-06T09:02:43;49.00;;;32.33;;
13122;SDS011;6627;50.920;12.050;2024-03-06T09:05:13;50.47;;;31.60;;
13122;SDS011;6627;50.920;12.050;2024-03-06T09:07:43;52.10;;;32.33;;
13122;SDS011;6627;50.920;12.050;2024-03-06T09:10:13;46.80;;;31.83;;
13122;SDS011;6627;50.920;12.050;2024-03-06T09:12:44;47.93;;;31.50;;
13122;SDS011;6627;50.920;12.050;2024-03-06T09:15:12;51.10;;;32.33;;
13122;SDS011;6627;50.920;12.050;2024-03-06T09:17:41;47.00;;;32.33;;
13122;SDS011;6627;50.920;12.050;2024-03-06T09:20:10;49.57;;;31.23;;
13122;SDS011;6627;50.920;12.050;2024-03-06T09:22:55;45.03;;;30.77;;
13122;SDS011;6627;50.920;12.050;2024-03-06T09:25:28;49.40;;;31.20;;
13122;SDS011;6627;50.920;12.050;2024-03-06T09:27:57;51.67;;;32.83;;
13122;SDS011;6627;50.920;12.050;2024-03-06T09:30:28;46.27;;;31.53;;
13122;SDS011;6627;50.920;12.050;2024-03-06T09:32:58;51.07;;;31.13;;
13122;SDS011;6627;50.920;12.050;2024-03-06T09:35:25;46.90;;;31.87;;
13122;SDS011;6627;50.920;12.050;2024-03-06T09:37:52;51.50;;;31.87;;
13122;SDS011;6627;50.920;12.050;2024-03-06T09:40:22;47.77;;;32.83;;
13122;SDS011;6627;50.920;12.050;2024-03-06T09:42:51;50.27;;;32.43;;
13122;SDS011;6627;50.920;12.050;2024-03-06T09:45:22;46.73;;;30.57;;
13122;SDS011;6627;50.920;12.050;2024-03-06T09:47:52;49.93;;;32.70;;
13122;SDS011;6627;50.920;12.050;2024-03-06T09:50:23;50.40;;;32.07;;
13122;SDS011;6627;50.920;12.050;2024-03-06T09:52:55;51.10;;;33.33;;
13122;SDS011;6627;50.920;12.050;2024-03-06T09:55:23;44.70;;;31.63;;
13122;SDS011;6627;50.920;12.050;2024-03-06T09:57:54;46.93;;;32.47;;
13122;SDS011;6627;50.920;12.050;2024-03-06T10:00:22;47.80;;;32.53;;
13122;SDS011;6627;50.920;12.050;2024-03-06T10:02:50;46.57;;;32.03;;
13122;SDS011;6627;50.920;12.050;2024-03-06T10:05:24;46.10;;;32.27;;
13122;SDS011;6627;50.920;12.050;2024-03-06T10:07:55;46.10;;;32.27;;
13122;SDS011;6627;50.920;12.050;2024-03-06T10:10:27;48.43;;;32.80;;
13122;SDS011;6627;50.920;12.050;2024-03-06T10:12:58;50.20;;;33.07;;
13122;SDS011;6627;50.920;12.050;2024-03-06T10:15:28;46.03;;;30.90;;
13122;SDS011;6627;50.920;12.050;2024-03-06T10:18:12;49.23;;;33.43;;
13122;SDS011;6627;50.920;12.050;2024-03-06T10:20:40;49.23;;;33.53;;
13122;SDS011;6627;50.920;12.050;2024-03-06T10:23:09;49.30;;;33.63;;
13122;SDS011;6627;50.920;12.050;2024-03-06T10:25:37;48.97;;;32.53;;
13122;SDS011;6627;50.920;12.050;2024-03-06T10:28:25;49.77;;;31.93;;
13122;SDS011;6627;50.920;12.050;2024-03-06T10:31:02;43.43;;;30.00;;
13122;SDS011;6627;50.920;12.050;2024-03-06T10:33:35;43.83;;;30.13;;
13122;SDS011;6627;50.920;12.050;2024-03-06T10:36:09;42.00;;;29.23;;
13122;SDS011;6627;50.920;12.050;2024-03-06T10:38:37;44.60;;;30.70;;
13122;SDS011;6627;50.920;12.050;2024-03-06T10:41:10;48.47;;;30.13;;
13122;SDS011;6627;50.920;12.050;2024-03-06T10:43:43;44.03;;;30.80;;
13122;SDS011;6627;50.920;12.050;2024-03-06T10:46:14;40.43;;;28.77;;
13122;SDS011;6627;50.920;12.050;2024-03-06T10:48:46;45.10;;;29.50;;
13122;SDS011;6627;50.920;12.050;2024-03-06T10:51:20;43.90;;;29.37;;
13122;SDS011;6627;50.920;12.050;2024-03-06T10:53:50;43.30;;;29.00;;
13122;SDS011;6627;50.920;12.050;2024-03-06T10:56:21;45.37;;;29.93;;
13122;SDS011;6627;50.920;12.050;2024-03-06T10:58:52;41.23;;;28.50;;
13122;SDS011;6627;50.920;12.050;2024-03-06T11:01:23;40.43;;;28.53;;
13122;SDS011;6627;50.920;12.050;2024-03-06T11:03:51;40.63;;;27.10;;
13122;SDS011;6627;50.920;12.050;2024-03-06T11:06:28;37.33;;;26.37;;
13122;SDS011;6627;50.920;12.050;2024-03-06T11:08:56;38.93;;;25.70;;
13122;SDS011;6627;50.920;12.050;2024-03-06T11:11:23;39.33;;;27.00;;
13122;SDS011;6627;50.920;12.050;2024-03-06T11:13:55;38.83;;;28.00;;
13122;SDS011;6627;50.920;12.050;2024-03-06T11:16:29;38.97;;;26.67;;
13122;SDS011;6627;50.920;12.050;2024-03-06T11:19:04;38.50;;;25.10;;
13122;SDS011;6627;50.920;12.050;2024-03-06T11:21:45;34.00;;;24.10;;
13122;SDS011;6627;50.920;12.050;2024-03-06T11:24:14;34.40;;;25.57;;
13122;SDS011;6627;50.920;12.050;2024-03-06T11:26:48;35.50;;;25.30;;
13122;SDS011;6627;50.920;12.050;2024-03-06T11:29:26;33.13;;;22.67;;
13122;SDS011;6627;50.920;12.050;2024-03-06T11:31:57;37.50;;;23.60;;
13122;SDS011;6627;50.920;12.050;2024-03-06T11:34:29;32.43;;;21.90;;
13122;SDS011;6627;50.920;12.050;2024-03-06T11:37:02;40.30;;;23.63;;
13122;SDS011;6627;50.920;12.050;2024-03-06T11:39:36;38.30;;;23.70;;
13122;SDS011;6627;50.920;12.050;2024-03-06T11:42:09;31.97;;;23.37;;
13122;SDS011;6627;50.920;12.050;2024-03-06T11:44:53;35.37;;;25.10;;
13122;SDS011;6627;50.920;12.050;2024-03-06T11:47:22;38.17;;;24.97;;
13122;SDS011;6627;50.920;12.050;2024-03-06T11:49:50;35.03;;;23.47;;
13122;SDS011;6627;50.920;12.050;2024-03-06T11:52:20;35.83;;;23.20;;
13122;SDS011;6627;50.920;12.050;2024-03-06T11:54:47;35.33;;;23.30;;
13122;SDS011;6627;50.920;12.050;2024-03-06T11:57:18;32.80;;;22.87;;
13122;SDS011;6627;50.920;12.050;2024-03-06T11:59:50;27.43;;;20.90;;
13122;SDS011;6627;50.920;12.050;2024-03-06T12:02:23;29.77;;;21.17;;
13122;SDS011;6627;50.920;12.050;2024-03-06T12:04:53;29.70;;;21.50;;
13122;SDS011;6627;50.920;12.050;2024-03-06T12:07:21;28.10;;;22.00;;
13122;SDS011;6627;50.920;12.050;2024-03-06T12:09:48;30.40;;;22.70;;
13122;SDS011;6627;50.920;12.050;2024-03-06T12:12:16;29.60;;;21.53;;
13122;SDS011;6627;50.920;12.050;2024-03-06T12:14:55;32.30;;;20.67;;
13122;SDS011;6627;50.920;12.050;2024-03-06T12:17:45;26.70;;;19.50;;
13122;SDS011;6627;50.920;12.050;2024-03-06T12:20:18;31.50;;;19.90;;
13122;SDS011;6627;50.920;12.050;2024-03-06T12:22:49;28.17;;;19.50;;
13122;SDS011;6627;50.920;12.050;2024-03-06T12:25:20;29.43;;;20.80;;
13122;SDS011;6627;50.920;12.050;2024-03-06T12:27:53;26.00;;;20.20;;
13122;SDS011;6627;50.920;12.050;2024-03-06T12:30:23;31.40;;;20.50;;
13122;SDS011;6627;50.920;12.050;2024-03-06T12:32:56;25.70;;;20.00;;
13122;SDS011;6627;50.920;12.050;2024-03-06T12:35:24;30.13;;;21.43;;
13122;SDS011;6627;50.920;12.050;2024-03-06T12:37:53;33.73;;;20.93;;
13122;SDS011;6627;50.920;12.050;2024-03-06T12:40:23;29.17;;;20.03;;
13122;SDS011;6627;50.920;12.050;2024-03-06T12:42:54;26.70;;;20.27;;
13122;SDS011;6627;50.920;12.050;2024-03-06T12:45:26;27.33;;;19.77;;
13122;SDS011;6627;50.920;12.050;2024-03-06T12:47:56;27.67;;;19.47;;
13122;SDS011;6627;50.920;12.050;2024-03-06T12:50:24;32.17;;;21.33;;
13122;SDS011;6627;50.920;12.050;2024-03-06T12:52:52;29.50;;;22.27;;
13122;SDS011;6627;50.920;12.050;2024-03-06T12:55:19;32.63;;;24.73;;
13122;SDS011;6627;50.920;12.050;2024-03-06T12:57:46;31.63;;;24.77;;
13122;SDS011;6627;50.920;12.050;2024-03-06T13:00:15;28.97;;;22.37;;
13122;SDS011;6627;50.920;12.050;2024-03-06T13:02:47;29.90;;;22.53;;
13122;SDS011;6627;50.920;12.050;2024-03-06T13:05:18;30.63;;;23.37;;
13122;SDS011;6627;50.920;12.050;2024-03-06T13:07:48;32.07;;;23.50;;
13122;SDS011;6627;50.920;12.050;2024-03-06T13:10:18;33.73;;;24.17;;
13122;SDS011;6627;50.920;12.050;2024-03-06T13:12:47;38.37;;;27.50;;
13122;SDS011;6627;50.920;12.050;2024-03-06T13:15:15;38.53;;;29.80;;
13122;SDS011;6627;50.920;12.050;2024-03-06T13:17:43;41.33;;;29.80;;
13122;SDS011;6627;50.920;12.050;2024-03-06T13:20:12;42.47;;;30.07;;
13122;SDS011;6627;50.920;12.050;2024-03-06T13:22:40;36.73;;;27.90;;
13122;SDS011;6627;50.920;12.050;2024-03-06T13:25:12;34.30;;;25.17;;
13122;SDS011;6627;50.920;12.050;2024-03-06T13:27:42;35.07;;;23.47;;
13122;SDS011;6627;50.920;12.050;2024-03-06T13:30:12;32.70;;;23.70;;
13122;SDS011;6627;50.920;12.050;2024-03-06T13:32:43;34.70;;;25.10;;
13122;SDS011;6627;50.920;12.050;2024-03-06T13:35:12;33.53;;;24.37;;
13122;SDS011;6627;50.920;12.050;2024-03-06T13:37:40;33.87;;;23.33;;
13122;SDS011;6627;50.920;12.050;2024-03-06T13:40:07;35.47;;;22.07;;
13122;SDS011;6627;50.920;12.050;2024-03-06T13:42:38;29.47;;;21.40;;
13122;SDS011;6627;50.920;12.050;2024-03-06T13:45:26;29.63;;;22.37;;
13122;SDS011;6627;50.920;12.050;2024-03-06T13:47:57;29.00;;;22.03;;
13122;SDS011;6627;50.920;12.050;2024-03-06T13:50:28;30.13;;;22.50;;
13122;SDS011;6627;50.920;12.050;2024-03-06T13:52:58;27.80;;;20.60;;
13122;SDS011;6627;50.920;12.050;2024-03-06T13:55:28;32.40;;;20.97;;
13122;SDS011;6627;50.920;12.050;2024-03-06T13:57:58;30.77;;;21.10;;
13122;SDS011;6627;50.920;12.050;2024-03-06T14:00:25;33.37;;;23.20;;
13122;SDS011;6627;50.920;12.050;2024-03-06T14:02:53;30.07;;;22.37;;
13122;SDS011;6627;50.920;12.050;2024-03-06T14:05:20;33.97;;;25.40;;
13122;SDS011;6627;50.920;12.050;2024-03-06T14:07:54;33.07;;;23.47;;
13122;SDS011;6627;50.920;12.050;2024-03-06T14:10:24;37.07;;;25.70;;
13122;SDS011;6627;50.920;12.050;2024-03-06T14:12:54;30.97;;;22.87;;
13122;SDS011;6627;50.920;12.050;2024-03-06T14:15:26;34.67;;;23.40;;
13122;SDS011;6627;50.920;12.050;2024-03-06T14:17:53;32.77;;;24.33;;
13122;SDS011;6627;50.920;12.050;2024-03-06T14:20:20;33.27;;;25.07;;
13122;SDS011;6627;50.920;12.050;2024-03-06T14:22:49;35.90;;;25.10;;
13122;SDS011;6627;50.920;12.050;2024-03-06T14:25:17;32.30;;;24.40;;
13122;SDS011;6627;50.920;12.050;2024-03-06T14:27:45;37.97;;;24.30;;
13122;SDS011;6627;50.920;12.050;2024-03-06T14:30:16;33.43;;;24.07;;
13122;SDS011;6627;50.920;12.050;2024-03-06T14:32:48;35.17;;;24.63;;
13122;SDS011;6627;50.920;12.050;2024-03-06T14:35:18;33.40;;;24.03;;
13122;SDS011;6627;50.920;12.050;2024-03-06T14:37:45;31.43;;;23.67;;